Stolt Shearwater — ZCRD9 — position and weather

sailwx.info

Track history (hours):
 
Tides and Currents Weather Stations Pressure Air Temp Water Temp Dewpoint Dewpoint Depression Visibility Wind Speed Wind Dir Waves Ship Positions

Stolt Shearwater

Last reported at 2016-Jul-23 20:34 UTC. Time now 2016-Jul-23 21:16 UTC.
Position N 54°38' W 005°16'.

Length 96 m; draft 5.1 m.

Type: Ship. MMSI: 319402000.

Date/timePositionNaut miles runAvg speedWind from/ knotsBaromVisibWave heightAir tempDewpointWater temp
2016-Jul-23 20:34N 54°38' W 005°16'1110.7
2016-Jul-23 19:33N 54°44' W 005°31'1110.7
2016-Jul-23 18:33N 54°41' W 005°49'1 0.0
2016-Jul-22 22:29N 54°40' W 005°50'8 7.7
2016-Jul-22 21:30N 54°44' W 005°38'9 9.6
2016-Jul-22 20:33N 54°53' W 005°37'1211.4
2016-Jul-22 19:28N 55°04' W 005°47'1010.7
2016-Jul-22 18:33N 55°12' W 005°57'9 9.0
2016-Jul-22 17:33N 55°20' W 006°05'8 8.2
2016-Jul-22 16:33N 55°23' W 006°18'9 8.7
2016-Jul-22 15:33N 55°29' W 006°28'9 8.9
2016-Jul-22 14:33N 55°36' W 006°39'8 7.9
2016-Jul-22 13:33N 55°42' W 006°48'193 9.1
2016-Jul-21 16:17N 58°42' W 004°41'912.3
2016-Jul-21 15:33N 58°42' W 004°24'1211.8
2016-Jul-21 14:33N 58°43' W 004°01'1211.7
2016-Jul-21 13:33N 58°43' W 003°39'1211.6
2016-Jul-21 12:34N 58°43' W 003°16'1010.2
2016-Jul-21 11:33N 58°43' W 002°57'5 5.3
2016-Jul-21 10:33N 58°39' W 002°51'6 6.2
2016-Jul-21 09:34N 58°33' W 002°46'20410.2
2016-Jul-20 13:33N 55°19' W 000°53'1110.6
2016-Jul-20 12:33N 55°08' W 000°52'1111.1
2016-Jul-20 11:33N 54°57' W 000°51'1110.5
2016-Jul-20 10:33N 54°47' W 000°56'10 0.9
2016-Jul-19 23:17N 54°40' W 001°08'6 8.4
2016-Jul-19 22:33N 54°41' W 000°58'20 9.9
2016-Jul-19 20:34N 54°34' W 000°26'1110.5
2016-Jul-19 19:33N 54°30' W 000°09'1010.5
2016-Jul-19 18:33N 54°26' E 000°08'1010.0
2016-Jul-19 17:33N 54°22' E 000°24'3310.4
2016-Jul-19 14:23N 54°10' E 001°16'1312.0
2016-Jul-19 13:17N 54°05' E 001°37'912.2
2016-Jul-19 12:33N 54°01' E 001°51'1211.5
2016-Jul-19 11:32N 53°59' E 002°11'1411.4
2016-Jul-19 10:15N 53°59' E 002°35'811.0
2016-Jul-19 09:33N 53°58' E 002°49'2310.5
2016-Jul-19 07:19N 53°59' E 003°29'3010.4
2016-Jul-19 04:25N 54°02' E 004°20'1010.9
2016-Jul-19 03:33N 54°03' E 004°36'1111.4
2016-Jul-19 02:33N 54°05' E 004°55'1211.8
2016-Jul-19 01:33N 54°06' E 005°15'1211.8
2016-Jul-19 00:33N 54°08' E 005°35'1211.6
2016-Jul-18 23:30N 54°09' E 005°55'1211.0
2016-Jul-18 22:26N 54°11' E 006°15'910.3
2016-Jul-18 21:33N 54°12' E 006°31'20 9.8
2016-Jul-18 19:33N 54°12' E 007°04'9 9.4
2016-Jul-18 18:34N 54°12' E 007°20'10 9.6
2016-Jul-18 17:33N 54°11' E 007°37'10 9.8
2016-Jul-18 16:33N 54°06' E 007°51'1111.3
2016-Jul-18 15:33N 54°01' E 008°08'1211.9
2016-Jul-18 14:33N 53°59' E 008°29'1212.2
2016-Jul-18 13:34N 53°52' E 008°45'1010.0
2016-Jul-18 12:34N 53°52' E 009°02'8 8.2
2016-Jul-18 11:34N 53°53' E 009°16'8 8.2
2016-Jul-18 10:34N 53°46' E 009°24'8 8.0
2016-Jul-18 09:33N 53°39' E 009°31'10 9.5
2016-Jul-18 08:33N 53°34' E 009°44'8 8.3
2016-Jul-18 07:33N 53°31' E 009°57'0 0.0
2016-Jul-18 06:33N 53°31' E 009°57'0 0.0
2016-Jul-18 05:33N 53°31' E 009°57'0 0.0
2016-Jul-18 04:33N 53°31' E 009°57'0 0.0
2016-Jul-18 03:30N 53°31' E 009°57'0 0.0
2016-Jul-18 02:33N 53°31' E 009°57'0 0.0
2016-Jul-18 01:33N 53°31' E 009°57'0 0.0
2016-Jul-18 00:33N 53°31' E 009°57'0 0.0
2016-Jul-17 23:33N 53°31' E 009°57'0 0.0
2016-Jul-17 22:33N 53°31' E 009°57'0 0.0
2016-Jul-17 21:33N 53°31' E 009°57'0 0.0
2016-Jul-17 20:33N 53°31' E 009°57'0 0.0
2016-Jul-17 19:33N 53°31' E 009°57'0 0.0
2016-Jul-17 18:33N 53°31' E 009°57'0 0.0
2016-Jul-17 17:33N 53°31' E 009°57'0 0.0
2016-Jul-17 16:33N 53°31' E 009°57'0 0.0
2016-Jul-17 15:33N 53°31' E 009°57'0 0.0
2016-Jul-17 14:33N 53°31' E 009°57'0 0.0
2016-Jul-17 13:33N 53°31' E 009°57'0 0.0
2016-Jul-17 12:33N 53°31' E 009°57'0 0.0
2016-Jul-17 11:33N 53°31' E 009°57'4 4.2
2016-Jul-17 10:34N 53°33' E 009°51'1313.2
2016-Jul-17 09:33N 53°38' E 009°31'1010.2
2016-Jul-17 08:34N 53°47' E 009°23'1010.4
2016-Jul-17 07:33N 53°53' E 009°08'1110.9
2016-Jul-17 06:33N 53°50' E 008°50'2010.1
2016-Jul-17 04:33N 53°59' E 008°19'8 8.0
2016-Jul-17 03:33N 54°02' E 008°06'3 3.0
2016-Jul-17 02:32N 54°03' E 008°12'0 0.0
2016-Jul-17 01:29N 54°03' E 008°11'0 0.0
2016-Jul-17 00:29N 54°03' E 008°11'0 0.0
2016-Jul-16 23:32N 54°03' E 008°12'0 0.2
2016-Jul-16 22:32N 54°03' E 008°12'0 0.0
2016-Jul-16 21:32N 54°03' E 008°12'0 0.0
2016-Jul-16 20:32N 54°03' E 008°12'0 0.0
2016-Jul-16 19:32N 54°03' E 008°12'0 0.3
2016-Jul-16 18:33N 54°03' E 008°11'2 2.3
2016-Jul-16 17:34N 54°03' E 008°07'2 2.0
2016-Jul-16 16:33N 54°04' E 008°04'8 8.5
2016-Jul-16 15:34N 54°05' E 007°50'1110.8
2016-Jul-16 14:33N 54°09' E 007°33'1111.3
2016-Jul-16 13:33N 54°09' E 007°13'1211.2
2016-Jul-16 12:32N 54°09' E 006°54'29 9.7
2016-Jul-16 09:33N 54°07' E 006°04'10 9.8
2016-Jul-16 08:33N 54°06' E 005°48'9 9.0
2016-Jul-16 07:33N 54°05' E 005°33'9 9.0
2016-Jul-16 06:33N 54°03' E 005°17'11910.8
2016-Jul-15 19:32N 53°58' E 001°55'1111.0
2016-Jul-15 18:33N 53°59' E 001°37'4611.3
2016-Jul-15 14:31N 53°36' E 000°30'1 0.2
2016-Jul-15 10:16N 53°35' E 000°30'0 0.1
2016-Jul-15 08:13N 53°35' E 000°29'0 0.0
2016-Jul-15 07:16N 53°35' E 000°29'0 0.0
2016-Jul-15 04:16N 53°35' E 000°30'0 0.0
2016-Jul-15 00:07N 53°35' E 000°29'0 0.0
2016-Jul-14 23:28N 53°35' E 000°29'0 0.0
2016-Jul-14 22:28N 53°35' E 000°29'0 0.0
2016-Jul-14 19:28N 53°35' E 000°29'0 0.0
2016-Jul-14 18:31N 53°35' E 000°29'0 0.0
2016-Jul-14 16:16N 53°35' E 000°29'0 0.1
2016-Jul-14 15:16N 53°35' E 000°29'0 0.0
2016-Jul-14 14:22N 53°35' E 000°29'0 0.0
2016-Jul-14 13:19N 53°35' E 000°29'0 0.0
2016-Jul-14 11:25N 53°35' E 000°29'0 0.0
2016-Jul-14 04:16N 53°35' E 000°30'0 0.0
2016-Jul-14 03:31N 53°35' E 000°30'0 0.0
2016-Jul-14 02:28N 53°35' E 000°30'0 0.0
2016-Jul-14 00:16N 53°35' E 000°29'  
Track history (hours):
 
Tides and Currents Weather Stations Pressure Air Temp Water Temp Dewpoint Dewpoint Depression Visibility Wind Speed Wind Dir Waves Ship Positions

Stolt Shearwater

Last reported at 2016-Jul-23 20:34 UTC. Time now 2016-Jul-23 21:16 UTC.
Position N 54°38' W 005°16'.

Length 96 m; draft 5.1 m.

Type: Ship. MMSI: 319402000.

Date/timePositionNaut miles runAvg speedWind from/ knotsBaromVisibWave heightAir tempDewpointWater temp
2016-Jul-23 20:34N 54°38' W 005°16'1110.7
2016-Jul-23 19:33N 54°44' W 005°31'1110.7
2016-Jul-23 18:33N 54°41' W 005°49'1 0.0
2016-Jul-22 22:29N 54°40' W 005°50'8 7.7
2016-Jul-22 21:30N 54°44' W 005°38'9 9.6
2016-Jul-22 20:33N 54°53' W 005°37'1211.4
2016-Jul-22 19:28N 55°04' W 005°47'1010.7
2016-Jul-22 18:33N 55°12' W 005°57'9 9.0
2016-Jul-22 17:33N 55°20' W 006°05'8 8.2
2016-Jul-22 16:33N 55°23' W 006°18'9 8.7
2016-Jul-22 15:33N 55°29' W 006°28'9 8.9
2016-Jul-22 14:33N 55°36' W 006°39'8 7.9
2016-Jul-22 13:33N 55°42' W 006°48'193 9.1
2016-Jul-21 16:17N 58°42' W 004°41'912.3
2016-Jul-21 15:33N 58°42' W 004°24'1211.8
2016-Jul-21 14:33N 58°43' W 004°01'1211.7
2016-Jul-21 13:33N 58°43' W 003°39'1211.6
2016-Jul-21 12:34N 58°43' W 003°16'1010.2
2016-Jul-21 11:33N 58°43' W 002°57'5 5.3
2016-Jul-21 10:33N 58°39' W 002°51'6 6.2
2016-Jul-21 09:34N 58°33' W 002°46'20410.2
2016-Jul-20 13:33N 55°19' W 000°53'1110.6
2016-Jul-20 12:33N 55°08' W 000°52'1111.1
2016-Jul-20 11:33N 54°57' W 000°51'1110.5
2016-Jul-20 10:33N 54°47' W 000°56'10 0.9
2016-Jul-19 23:17N 54°40' W 001°08'6 8.4
2016-Jul-19 22:33N 54°41' W 000°58'20 9.9
2016-Jul-19 20:34N 54°34' W 000°26'1110.5
2016-Jul-19 19:33N 54°30' W 000°09'1010.5
2016-Jul-19 18:33N 54°26' E 000°08'1010.0
2016-Jul-19 17:33N 54°22' E 000°24'3310.4
2016-Jul-19 14:23N 54°10' E 001°16'1312.0
2016-Jul-19 13:17N 54°05' E 001°37'912.2
2016-Jul-19 12:33N 54°01' E 001°51'1211.5
2016-Jul-19 11:32N 53°59' E 002°11'1411.4
2016-Jul-19 10:15N 53°59' E 002°35'811.0
2016-Jul-19 09:33N 53°58' E 002°49'2310.5
2016-Jul-19 07:19N 53°59' E 003°29'3010.4
2016-Jul-19 04:25N 54°02' E 004°20'1010.9
2016-Jul-19 03:33N 54°03' E 004°36'1111.4
2016-Jul-19 02:33N 54°05' E 004°55'1211.8
2016-Jul-19 01:33N 54°06' E 005°15'1211.8
2016-Jul-19 00:33N 54°08' E 005°35'1211.6
2016-Jul-18 23:30N 54°09' E 005°55'1211.0
2016-Jul-18 22:26N 54°11' E 006°15'910.3
2016-Jul-18 21:33N 54°12' E 006°31'20 9.8
2016-Jul-18 19:33N 54°12' E 007°04'9 9.4
2016-Jul-18 18:34N 54°12' E 007°20'10 9.6
2016-Jul-18 17:33N 54°11' E 007°37'10 9.8
2016-Jul-18 16:33N 54°06' E 007°51'1111.3
2016-Jul-18 15:33N 54°01' E 008°08'1211.9
2016-Jul-18 14:33N 53°59' E 008°29'1212.2
2016-Jul-18 13:34N 53°52' E 008°45'1010.0
2016-Jul-18 12:34N 53°52' E 009°02'8 8.2
2016-Jul-18 11:34N 53°53' E 009°16'8 8.2
2016-Jul-18 10:34N 53°46' E 009°24'8 8.0
2016-Jul-18 09:33N 53°39' E 009°31'10 9.5
2016-Jul-18 08:33N 53°34' E 009°44'8 8.3
2016-Jul-18 07:33N 53°31' E 009°57'0 0.0
2016-Jul-18 06:33N 53°31' E 009°57'0 0.0
2016-Jul-18 05:33N 53°31' E 009°57'0 0.0
2016-Jul-18 04:33N 53°31' E 009°57'0 0.0
2016-Jul-18 03:30N 53°31' E 009°57'0 0.0
2016-Jul-18 02:33N 53°31' E 009°57'0 0.0
2016-Jul-18 01:33N 53°31' E 009°57'0 0.0
2016-Jul-18 00:33N 53°31' E 009°57'0 0.0
2016-Jul-17 23:33N 53°31' E 009°57'0 0.0
2016-Jul-17 22:33N 53°31' E 009°57'0 0.0
2016-Jul-17 21:33N 53°31' E 009°57'0 0.0
2016-Jul-17 20:33N 53°31' E 009°57'0 0.0
2016-Jul-17 19:33N 53°31' E 009°57'0 0.0
2016-Jul-17 18:33N 53°31' E 009°57'0 0.0
2016-Jul-17 17:33N 53°31' E 009°57'0 0.0
2016-Jul-17 16:33N 53°31' E 009°57'0 0.0
2016-Jul-17 15:33N 53°31' E 009°57'0 0.0
2016-Jul-17 14:33N 53°31' E 009°57'0 0.0
2016-Jul-17 13:33N 53°31' E 009°57'0 0.0
2016-Jul-17 12:33N 53°31' E 009°57'0 0.0
2016-Jul-17 11:33N 53°31' E 009°57'4 4.2
2016-Jul-17 10:34N 53°33' E 009°51'1313.2
2016-Jul-17 09:33N 53°38' E 009°31'1010.2
2016-Jul-17 08:34N 53°47' E 009°23'1010.4
2016-Jul-17 07:33N 53°53' E 009°08'1110.9
2016-Jul-17 06:33N 53°50' E 008°50'2010.1
2016-Jul-17 04:33N 53°59' E 008°19'8 8.0
2016-Jul-17 03:33N 54°02' E 008°06'3 3.0
2016-Jul-17 02:32N 54°03' E 008°12'0 0.0
2016-Jul-17 01:29N 54°03' E 008°11'0 0.0
2016-Jul-17 00:29N 54°03' E 008°11'0 0.0
2016-Jul-16 23:32N 54°03' E 008°12'0 0.2
2016-Jul-16 22:32N 54°03' E 008°12'0 0.0
2016-Jul-16 21:32N 54°03' E 008°12'0 0.0
2016-Jul-16 20:32N 54°03' E 008°12'0 0.0
2016-Jul-16 19:32N 54°03' E 008°12'0 0.3
2016-Jul-16 18:33N 54°03' E 008°11'2 2.3
2016-Jul-16 17:34N 54°03' E 008°07'2 2.0
2016-Jul-16 16:33N 54°04' E 008°04'8 8.5
2016-Jul-16 15:34N 54°05' E 007°50'1110.8
2016-Jul-16 14:33N 54°09' E 007°33'1111.3
2016-Jul-16 13:33N 54°09' E 007°13'1211.2
2016-Jul-16 12:32N 54°09' E 006°54'29 9.7
2016-Jul-16 09:33N 54°07' E 006°04'10 9.8
2016-Jul-16 08:33N 54°06' E 005°48'9 9.0
2016-Jul-16 07:33N 54°05' E 005°33'9 9.0
2016-Jul-16 06:33N 54°03' E 005°17'11910.8
2016-Jul-15 19:32N 53°58' E 001°55'1111.0
2016-Jul-15 18:33N 53°59' E 001°37'4611.3
2016-Jul-15 14:31N 53°36' E 000°30'1 0.2
2016-Jul-15 10:16N 53°35' E 000°30'0 0.1
2016-Jul-15 08:13N 53°35' E 000°29'0 0.0
2016-Jul-15 07:16N 53°35' E 000°29'0 0.0
2016-Jul-15 04:16N 53°35' E 000°30'0 0.0
2016-Jul-15 00:07N 53°35' E 000°29'0 0.0
2016-Jul-14 23:28N 53°35' E 000°29'0 0.0
2016-Jul-14 22:28N 53°35' E 000°29'0 0.0
2016-Jul-14 19:28N 53°35' E 000°29'0 0.0
2016-Jul-14 18:31N 53°35' E 000°29'0 0.0
2016-Jul-14 16:16N 53°35' E 000°29'0 0.1
2016-Jul-14 15:16N 53°35' E 000°29'0 0.0
2016-Jul-14 14:22N 53°35' E 000°29'0 0.0
2016-Jul-14 13:19N 53°35' E 000°29'0 0.0
2016-Jul-14 11:25N 53°35' E 000°29'0 0.0
2016-Jul-14 04:16N 53°35' E 000°30'0 0.0
2016-Jul-14 03:31N 53°35' E 000°30'0 0.0
2016-Jul-14 02:28N 53°35' E 000°30'0 0.0
2016-Jul-14 00:16N 53°35' E 000°29'  

Dump ship's entire track history